createdAt,value
2018-12-13T00:00:29.606Z,9.50
2018-12-13T00:03:08.385Z,10.17
2018-12-13T00:05:43.059Z,10.17
2018-12-13T00:08:19.395Z,10.33
2018-12-13T00:10:51.640Z,9.87
2018-12-13T00:13:23.608Z,10.10
2018-12-13T00:15:59.656Z,10.67
2018-12-13T00:18:35.741Z,9.13
2018-12-13T00:21:08.100Z,10.23
2018-12-13T00:23:40.512Z,9.13
2018-12-13T00:26:12.790Z,9.90
2018-12-13T00:28:43.812Z,9.43
2018-12-13T00:31:19.959Z,9.77
2018-12-13T00:33:56.130Z,9.67
2018-12-13T00:36:32.179Z,10.17
2018-12-13T00:39:06.221Z,10.40
2018-12-13T00:41:38.639Z,10.43
2018-12-13T00:44:10.924Z,9.03
2018-12-13T00:46:43.233Z,9.83
2018-12-13T00:49:19.382Z,9.77
2018-12-13T00:51:52.374Z,9.67
2018-12-13T00:54:25.288Z,9.03
2018-12-13T00:56:57.655Z,9.70
2018-12-13T00:59:33.979Z,9.17
2018-12-13T01:02:10.924Z,8.83
2018-12-13T01:04:43.925Z,9.50
2018-12-13T01:07:16.973Z,9.77
2018-12-13T01:09:49.299Z,9.17
2018-12-13T01:12:19.643Z,9.37
2018-12-13T01:14:51.895Z,9.10
2018-12-13T01:17:28.288Z,9.00
2018-12-13T01:20:00.440Z,9.57
2018-12-13T01:22:37.171Z,9.90
2018-12-13T01:25:13.479Z,9.67
2018-12-13T01:27:50.592Z,9.43
2018-12-13T01:30:22.917Z,9.27
2018-12-13T01:32:59.969Z,9.47
2018-12-13T01:35:32.576Z,9.40
2018-12-13T01:38:05.454Z,9.23
2018-12-13T01:40:41.650Z,9.47
2018-12-13T01:43:18.106Z,9.33
2018-12-13T01:45:54.157Z,8.83
2018-12-13T01:48:24.386Z,8.37
2018-12-13T01:50:57.333Z,9.53
2018-12-13T01:53:33.731Z,8.43
2018-12-13T01:56:06.538Z,9.40
2018-12-13T01:58:39.204Z,9.63
2018-12-13T02:01:15.468Z,9.57
2018-12-13T02:03:52.568Z,10.23
2018-12-13T02:06:25.588Z,9.63
2018-12-13T02:08:58.596Z,8.90
2018-12-13T02:11:30.610Z,8.93
2018-12-13T02:14:03.013Z,9.60
2018-12-13T02:16:37.013Z,8.50
2018-12-13T02:19:13.189Z,8.50
2018-12-13T02:21:46.130Z,8.80
2018-12-13T02:24:23.313Z,8.83
2018-12-13T02:27:00.213Z,9.07
2018-12-13T02:29:33.393Z,9.27
2018-12-13T02:32:06.425Z,8.40
2018-12-13T02:34:39.206Z,8.60
2018-12-13T02:37:15.489Z,8.70
2018-12-13T02:39:51.561Z,8.70
2018-12-13T02:42:26.452Z,8.63
2018-12-13T02:45:06.449Z,8.67
2018-12-13T02:47:45.829Z,9.57
2018-12-13T02:50:28.529Z,9.17
2018-12-13T02:53:10.525Z,9.77
2018-12-13T02:55:47.310Z,8.93
2018-12-13T02:58:27.260Z,9.30
2018-12-13T03:01:03.992Z,9.20
2018-12-13T03:03:39.382Z,9.10
2018-12-13T03:06:23.798Z,8.43
2018-12-13T03:09:07.657Z,9.00
2018-12-13T03:11:47.811Z,9.50
2018-12-13T03:14:24.685Z,9.17
2018-12-13T03:17:00.307Z,8.93
2018-12-13T03:19:35.161Z,8.97
2018-12-13T03:39:46.101Z,8.97
2018-12-13T03:42:19.770Z,9.20
2018-12-13T03:44:53.446Z,8.83
2018-12-13T03:47:30.281Z,9.07
2018-12-13T03:50:04.809Z,9.53
2018-12-13T03:52:39.921Z,9.03
2018-12-13T03:55:14.745Z,8.80
2018-12-13T03:57:48.900Z,8.93
2018-12-13T04:00:22.114Z,8.83
2018-12-13T04:02:55.971Z,9.53
2018-12-13T04:05:33.680Z,10.00
2018-12-13T04:08:11.230Z,10.47
2018-12-13T04:10:47.707Z,10.23
2018-12-13T04:13:24.671Z,10.47
2018-12-13T04:16:01.571Z,9.70
2018-12-13T04:18:39.429Z,10.33
2018-12-13T04:21:12.855Z,9.80
2018-12-13T04:23:45.689Z,9.67
2018-12-13T04:26:16.637Z,10.43
2018-12-13T04:28:53.614Z,9.60
2018-12-13T04:31:25.635Z,10.07
2018-12-13T04:33:55.637Z,9.80
2018-12-13T04:36:28.572Z,10.30
2018-12-13T04:39:07.877Z,9.63
2018-12-13T04:54:15.836Z,9.53
2018-12-13T04:56:46.093Z,9.10
2018-12-13T04:59:19.088Z,9.57
2018-12-13T05:01:55.391Z,10.07
2018-12-13T05:04:27.454Z,11.03
2018-12-13T05:06:59.696Z,10.80
2018-12-13T05:09:30.643Z,10.17
2018-12-13T05:12:03.990Z,10.70
2018-12-13T05:14:36.977Z,10.70
2018-12-13T05:17:07.892Z,11.50
2018-12-13T05:19:41.035Z,10.20
2018-12-13T05:22:13.365Z,10.40
2018-12-13T05:24:49.410Z,10.50
2018-12-13T05:27:26.371Z,11.37
2018-12-13T05:30:02.536Z,10.73
2018-12-13T05:32:34.807Z,10.73
2018-12-13T05:35:07.784Z,11.37
2018-12-13T05:37:39.948Z,12.43
2018-12-13T05:40:16.558Z,11.47
2018-12-13T05:42:52.607Z,11.67
2018-12-13T05:45:28.675Z,11.43
2018-12-13T05:48:00.740Z,11.83
2018-12-13T05:50:32.959Z,11.97
2018-12-13T05:53:05.192Z,11.27
2018-12-13T06:08:08.798Z,12.83
2018-12-13T06:10:41.709Z,12.37
2018-12-13T06:13:18.921Z,12.40
2018-12-13T06:15:51.961Z,12.50
2018-12-13T06:18:25.136Z,14.13
2018-12-13T06:20:57.305Z,13.67
2018-12-13T06:23:30.463Z,13.63
2018-12-13T06:26:07.629Z,15.50
2018-12-13T06:28:44.657Z,15.70
2018-12-13T06:31:15.014Z,16.70
2018-12-13T06:33:48.236Z,17.70
2018-12-13T06:36:21.536Z,17.43
2018-12-13T06:38:55.494Z,18.60
2018-12-13T06:41:28.303Z,17.90
2018-12-13T06:43:58.674Z,17.93
2018-12-13T06:46:31.653Z,19.87
2018-12-13T06:49:04.168Z,19.53
2018-12-13T06:51:37.040Z,18.30
2018-12-13T06:54:10.114Z,19.13
2018-12-13T06:56:46.896Z,17.87
2018-12-13T06:59:19.208Z,18.30
2018-12-13T07:01:52.109Z,18.80
2018-12-13T07:04:29.016Z,19.33
2018-12-13T07:17:00.514Z,19.63
2018-12-13T07:19:42.455Z,18.83
2018-12-13T07:22:16.703Z,20.00
2018-12-13T07:24:50.528Z,18.40
2018-12-13T07:27:23.311Z,19.43
2018-12-13T07:30:00.215Z,19.63
2018-12-13T07:32:32.940Z,19.00
2018-12-13T07:35:06.605Z,19.63
2018-12-13T07:37:40.294Z,19.80
2018-12-13T07:40:16.432Z,20.87
2018-12-13T07:42:52.607Z,20.33
2018-12-13T07:45:25.563Z,19.73
2018-12-13T07:48:01.884Z,20.90
2018-12-13T07:50:34.140Z,21.13
2018-12-13T07:53:10.320Z,19.90
2018-12-13T07:55:42.716Z,18.83
2018-12-13T07:58:15.089Z,20.10
2018-12-13T08:00:45.509Z,20.97
2018-12-13T08:03:21.685Z,22.07
2018-12-13T08:05:53.770Z,21.53
2018-12-13T08:08:26.204Z,21.90
2018-12-13T08:10:59.204Z,23.10
2018-12-13T08:13:36.227Z,20.33
2018-12-13T08:16:08.635Z,23.60
2018-12-13T08:18:43.139Z,21.93
2018-12-13T08:21:18.255Z,20.97
2018-12-13T08:23:55.384Z,22.33
2018-12-13T08:26:27.803Z,20.60
2018-12-13T08:29:04.635Z,21.57
2018-12-13T08:31:37.559Z,20.80
2018-12-13T08:34:09.819Z,20.30
2018-12-13T08:36:42.799Z,20.40
2018-12-13T08:39:14.889Z,19.83
2018-12-13T08:41:51.853Z,20.07
2018-12-13T08:44:24.232Z,21.27
2018-12-13T08:46:54.431Z,20.50
2018-12-13T08:49:27.510Z,20.53
2018-12-13T08:52:00.565Z,21.33
2018-12-13T08:54:36.711Z,21.93
2018-12-13T08:57:13.536Z,23.13
2018-12-13T08:59:50.050Z,23.23
2018-12-13T09:02:26.412Z,23.60
2018-12-13T09:04:59.449Z,23.60
2018-12-13T09:07:32.479Z,21.10
2018-12-13T09:10:06.546Z,22.70
2018-12-13T09:12:38.893Z,22.13
2018-12-13T09:15:14.991Z,21.10
2018-12-13T09:17:47.384Z,22.80
2018-12-13T09:20:19.586Z,24.20
2018-12-13T09:22:52.661Z,23.33
2018-12-13T09:25:28.889Z,23.70
2018-12-13T09:28:01.995Z,24.27
2018-12-13T09:30:38.881Z,23.70
2018-12-13T09:33:15.433Z,21.83
2018-12-13T09:35:47.555Z,21.63
2018-12-13T09:38:19.719Z,21.17
2018-12-13T09:40:51.934Z,21.87
2018-12-13T09:43:24.249Z,21.90
2018-12-13T09:45:57.189Z,19.93
2018-12-13T09:48:29.578Z,21.47
2018-12-13T09:51:05.915Z,21.17
2018-12-13T09:53:42.193Z,22.73
2018-12-13T09:56:18.385Z,21.50
2018-12-13T09:58:55.459Z,21.20
2018-12-13T10:01:26.458Z,21.60
2018-12-13T10:03:59.699Z,21.13
2018-12-13T10:06:36.672Z,22.67
2018-12-13T10:09:08.964Z,22.63
2018-12-13T10:11:42.225Z,21.53
2018-12-13T10:14:15.218Z,23.43
2018-12-13T10:16:52.312Z,23.30
2018-12-13T10:19:29.375Z,22.53
2018-12-13T10:22:02.222Z,22.33
2018-12-13T10:24:34.611Z,21.03
2018-12-13T10:27:06.673Z,22.47
2018-12-13T10:29:38.885Z,23.60
2018-12-13T10:32:14.993Z,22.43
2018-12-13T10:34:47.423Z,22.77
2018-12-13T10:37:20.148Z,22.77
2018-12-13T10:39:52.539Z,24.30
2018-12-13T10:42:25.061Z,24.27
2018-12-13T10:45:01.271Z,22.93
2018-12-13T10:47:37.457Z,22.80
2018-12-13T10:50:09.942Z,22.87
2018-12-13T10:52:46.949Z,21.30
2018-12-13T10:55:20.091Z,21.20
2018-12-13T10:57:53.179Z,21.10
2018-12-13T11:00:31.495Z,22.63
2018-12-13T11:03:23.057Z,22.60
2018-12-13T11:05:55.972Z,23.97
2018-12-13T11:08:29.396Z,22.67
2018-12-13T11:11:02.628Z,22.73
2018-12-13T11:13:38.203Z,23.70
2018-12-13T11:16:14.598Z,23.10
2018-12-13T11:18:47.062Z,24.13
2018-12-13T11:21:18.022Z,24.10
2018-12-13T11:23:48.344Z,24.07
2018-12-13T11:26:24.609Z,24.87
2018-12-13T11:29:39.668Z,23.10
2018-12-13T11:32:09.991Z,25.33
2018-12-13T11:34:42.024Z,23.87
2018-12-13T11:37:19.622Z,23.83
2018-12-13T11:39:53.291Z,25.33
2018-12-13T11:42:31.440Z,25.73
2018-12-13T11:45:06.625Z,25.87
2018-12-13T11:47:40.235Z,25.33
2018-12-13T11:50:14.072Z,23.17
2018-12-13T11:52:47.189Z,25.03
2018-12-13T11:55:53.020Z,23.33
2018-12-13T11:58:26.234Z,22.57
2018-12-13T12:00:57.277Z,23.13
2018-12-13T12:03:33.633Z,24.07
2018-12-13T12:06:08.974Z,25.73
2018-12-13T12:08:48.123Z,24.83
2018-12-13T12:11:27.491Z,23.07
2018-12-13T12:14:04.104Z,23.90
2018-12-13T12:16:36.174Z,23.23
2018-12-13T12:19:11.673Z,24.40
2018-12-13T12:21:42.855Z,24.87
2018-12-13T12:24:13.548Z,24.47
2018-12-13T12:26:53.702Z,23.43
2018-12-13T12:29:30.180Z,24.60
2018-12-13T12:32:03.543Z,24.30
2018-12-13T12:34:34.560Z,24.50
2018-12-13T12:37:08.102Z,22.00
2018-12-13T12:39:44.385Z,22.47
2018-12-13T12:42:17.710Z,22.07
2018-12-13T12:44:53.860Z,23.73
2018-12-13T12:47:32.645Z,25.27
2018-12-13T12:50:08.368Z,22.80
2018-12-13T12:52:40.979Z,23.27
2018-12-13T12:55:21.939Z,20.90
2018-12-13T12:57:59.468Z,21.17
2018-12-13T13:00:31.792Z,21.03
2018-12-13T13:03:08.573Z,21.97
2018-12-13T13:05:40.893Z,22.30
2018-12-13T13:08:14.126Z,23.50
2018-12-13T13:10:51.958Z,22.00
2018-12-13T13:13:24.969Z,22.23
2018-12-13T13:16:01.180Z,19.27
2018-12-13T13:18:39.968Z,21.00
2018-12-13T13:21:18.087Z,20.23
2018-12-13T13:23:51.551Z,21.37
2018-12-13T13:26:29.201Z,23.17
2018-12-13T13:29:05.586Z,21.03
2018-12-13T13:31:39.082Z,22.43
2018-12-13T13:34:11.845Z,22.13
2018-12-13T13:36:45.228Z,20.00
2018-12-13T13:39:17.481Z,22.97
2018-12-13T13:41:55.967Z,24.30
2018-12-13T13:44:38.026Z,25.13
2018-12-13T13:47:11.260Z,24.70
2018-12-13T13:49:44.452Z,22.87
2018-12-13T13:52:17.235Z,22.87
2018-12-13T13:54:53.406Z,23.17
2018-12-13T13:57:26.467Z,21.80
2018-12-13T14:00:03.692Z,19.37
2018-12-13T14:02:40.569Z,19.93
2018-12-13T14:05:13.495Z,20.43
2018-12-13T14:07:48.698Z,21.40
2018-12-13T14:10:22.607Z,22.27
2018-12-13T14:12:55.967Z,22.33
2018-12-13T14:15:27.337Z,22.30
2018-12-13T14:18:00.480Z,22.20
2018-12-13T14:20:33.632Z,22.37
2018-12-13T14:23:10.280Z,24.47
2018-12-13T14:25:45.035Z,24.83
2018-12-13T14:28:22.043Z,25.27
2018-12-13T14:30:54.999Z,24.67
2018-12-13T14:33:30.235Z,23.87
2018-12-13T14:36:10.641Z,24.10
2018-12-13T14:38:45.375Z,25.37
2018-12-13T14:41:21.702Z,24.60
2018-12-13T14:44:14.682Z,22.80
2018-12-13T14:46:48.566Z,23.60
2018-12-13T14:49:21.901Z,21.87
2018-12-13T14:51:54.977Z,22.43
2018-12-13T14:54:27.568Z,23.33
2018-12-13T14:57:00.402Z,22.23
2018-12-13T14:59:36.887Z,23.63
2018-12-13T15:02:13.933Z,23.00
2018-12-13T15:04:48.565Z,22.07
2018-12-13T15:07:25.465Z,24.03
2018-12-13T15:09:58.525Z,26.10
2018-12-13T15:12:35.472Z,24.70
2018-12-13T15:15:08.055Z,22.60
2018-12-13T15:17:40.739Z,23.33
2018-12-13T15:20:17.181Z,22.70
2018-12-13T15:22:50.118Z,22.43
2018-12-13T15:25:26.525Z,21.00
2018-12-13T15:28:04.374Z,23.13
2018-12-13T15:30:36.923Z,21.53
2018-12-13T15:33:13.275Z,20.90
2018-12-13T15:35:46.020Z,21.40
2018-12-13T15:38:19.362Z,21.53
2018-12-13T15:40:52.012Z,21.63
2018-12-13T15:43:25.480Z,22.00
2018-12-13T15:45:58.334Z,21.57
2018-12-13T15:48:31.528Z,20.93
2018-12-13T15:51:04.697Z,23.30
2018-12-13T15:53:37.523Z,20.70
2018-12-13T15:56:15.393Z,21.53
2018-12-13T15:58:51.645Z,20.00
2018-12-13T16:01:23.857Z,18.33
2018-12-13T16:04:00.991Z,21.40
2018-12-13T16:06:38.074Z,20.90
2018-12-13T16:09:10.985Z,20.03
2018-12-13T16:11:43.076Z,20.03
2018-12-13T16:14:16.176Z,21.93
2018-12-13T16:16:48.372Z,19.60
2018-12-13T16:19:25.560Z,21.00
2018-12-13T16:21:59.532Z,20.60
2018-12-13T16:24:35.862Z,20.13
2018-12-13T16:27:17.705Z,19.10
2018-12-13T16:29:53.949Z,17.73
2018-12-13T16:32:25.086Z,18.87
2018-12-13T16:42:35.629Z,19.10
2018-12-13T16:45:09.767Z,18.63
2018-12-13T16:47:42.680Z,18.97
2018-12-13T16:50:15.819Z,18.43
2018-12-13T16:52:49.009Z,17.83
2018-12-13T16:55:21.373Z,18.53
2018-12-13T16:57:53.911Z,17.83
2018-12-13T17:00:26.734Z,18.20
2018-12-13T17:03:00.036Z,18.20
2018-12-13T17:05:33.002Z,18.13
2018-12-13T17:08:05.646Z,18.30
2018-12-13T17:10:38.536Z,19.23
2018-12-13T17:13:12.404Z,18.40
2018-12-13T17:15:49.786Z,18.37
2018-12-13T17:18:24.275Z,18.70
2018-12-13T17:20:57.570Z,18.90
2018-12-13T17:23:31.356Z,18.67
2018-12-13T17:26:04.653Z,19.40
2018-12-13T17:28:40.320Z,19.00
2018-12-13T17:31:15.965Z,19.03
2018-12-13T17:33:50.753Z,19.53
2018-12-13T17:36:26.459Z,19.10
2018-12-13T17:39:00.353Z,19.77
2018-12-13T17:41:40.660Z,20.70
2018-12-13T17:49:21.357Z,19.60
2018-12-13T17:54:28.292Z,20.40
2018-12-13T17:57:04.875Z,21.40
2018-12-13T17:59:35.784Z,20.50
2018-12-13T18:02:09.884Z,21.53
2018-12-13T18:04:43.800Z,21.77
2018-12-13T18:07:20.412Z,20.67
2018-12-13T18:09:52.148Z,20.83
2018-12-13T18:12:25.750Z,20.13
2018-12-13T18:15:00.445Z,19.73
2018-12-13T18:17:33.532Z,21.10
2018-12-13T18:20:07.068Z,21.97
2018-12-13T18:22:40.079Z,19.97
2018-12-13T18:25:14.239Z,22.30
2018-12-13T18:27:48.878Z,21.17
2018-12-13T18:30:21.807Z,21.70
2018-12-13T18:32:54.987Z,21.40
2018-12-13T18:35:32.907Z,21.53
2018-12-13T18:38:06.230Z,20.67
2018-12-13T18:40:39.933Z,20.87
2018-12-13T18:43:16.974Z,21.17
2018-12-13T18:45:54.059Z,22.27
2018-12-13T18:48:33.092Z,21.97
2018-12-13T18:51:10.476Z,21.70
2018-12-13T18:53:43.919Z,21.10
2018-12-13T19:06:24.497Z,23.90
2018-12-13T19:09:00.767Z,24.37
2018-12-13T19:11:31.785Z,26.57
2018-12-13T19:14:05.148Z,23.07
2018-12-13T19:16:41.568Z,24.37
2018-12-13T19:19:15.325Z,24.80
2018-12-13T19:21:47.541Z,25.70
2018-12-13T19:24:18.944Z,26.87
2018-12-13T19:26:57.055Z,27.73
2018-12-13T19:29:29.949Z,28.03
2018-12-13T19:32:03.256Z,29.63
2018-12-13T19:34:36.403Z,28.73
2018-12-13T19:37:12.857Z,30.50
2018-12-13T19:39:50.074Z,28.67
2018-12-13T19:42:27.189Z,29.20
2018-12-13T19:45:00.323Z,28.17
2018-12-13T19:47:33.528Z,26.73
2018-12-13T19:50:04.852Z,30.10
2018-12-13T19:52:37.778Z,28.63
2018-12-13T19:55:12.143Z,28.13
2018-12-13T19:57:45.295Z,27.60
2018-12-13T20:00:18.533Z,27.33
2018-12-13T20:02:52.092Z,26.53
2018-12-13T20:05:25.501Z,27.50
2018-12-13T20:08:02.642Z,26.50
2018-12-13T20:10:35.557Z,25.73
2018-12-13T20:13:06.676Z,26.43
2018-12-13T20:15:43.919Z,25.20
2018-12-13T20:18:17.005Z,24.97
2018-12-13T20:20:50.239Z,24.87
2018-12-13T20:23:27.240Z,24.97
2018-12-13T20:26:04.362Z,24.33
2018-12-13T20:28:41.356Z,24.47
2018-12-13T20:31:14.442Z,23.07
2018-12-13T20:33:47.286Z,23.03
2018-12-13T20:36:18.574Z,23.63
2018-12-13T20:38:51.720Z,21.70
2018-12-13T20:41:28.178Z,21.93
2018-12-13T20:44:01.390Z,21.00
2018-12-13T20:46:34.155Z,22.33
2018-12-13T20:49:07.317Z,20.87
2018-12-13T20:51:40.489Z,21.07
2018-12-13T20:54:16.721Z,19.27
2018-12-13T20:56:53.633Z,18.17
2018-12-13T20:59:26.786Z,18.33
2018-12-13T21:01:59.239Z,17.23
2018-12-13T21:04:35.463Z,20.53
2018-12-13T21:07:17.205Z,19.73
2018-12-13T21:12:17.977Z,18.37
2018-12-13T21:14:51.049Z,18.90
2018-12-13T21:17:28.226Z,19.20
2018-12-13T21:20:01.216Z,18.93
2018-12-13T21:22:32.269Z,16.90
2018-12-13T21:25:08.857Z,17.73
2018-12-13T21:27:41.826Z,19.13
2018-12-13T21:30:12.735Z,19.50
2018-12-13T21:32:45.772Z,19.23
2018-12-13T21:35:22.230Z,18.70
2018-12-13T21:37:59.334Z,18.43
2018-12-13T21:40:32.576Z,18.20
2018-12-13T21:43:09.669Z,18.70
2018-12-13T21:45:43.049Z,18.03
2018-12-13T21:48:15.585Z,18.77
2018-12-13T21:50:48.977Z,19.80
2018-12-13T21:53:26.089Z,20.17
2018-12-13T21:55:58.756Z,19.60
2018-12-13T21:58:37.893Z,22.50
2018-12-13T22:01:10.622Z,20.50
2018-12-13T22:03:41.592Z,19.37
2018-12-13T22:06:14.021Z,21.13
2018-12-13T22:08:47.114Z,20.90
2018-12-13T22:18:57.101Z,18.20
2018-12-13T22:26:32.671Z,22.30
2018-12-13T22:29:05.066Z,20.07
2018-12-13T22:31:42.475Z,19.80
2018-12-13T22:34:15.868Z,20.17
2018-12-13T22:36:51.098Z,20.50
2018-12-13T22:39:23.824Z,20.93
2018-12-13T22:42:00.936Z,20.30
2018-12-13T22:44:34.235Z,19.87
2018-12-13T22:47:11.359Z,19.80
2018-12-13T22:49:44.576Z,20.43
2018-12-13T22:52:17.487Z,21.40
2018-12-13T22:54:54.645Z,21.57
2018-12-13T22:57:27.929Z,21.63
2018-12-13T23:00:01.028Z,20.93
2018-12-13T23:02:37.663Z,21.60
2018-12-13T23:05:10.560Z,20.23
2018-12-13T23:07:47.479Z,21.43
2018-12-13T23:10:21.771Z,20.83
2018-12-13T23:12:58.098Z,21.73
2018-12-13T23:15:31.776Z,19.70
2018-12-13T23:18:08.865Z,22.67
2018-12-13T23:20:46.009Z,21.83
2018-12-13T23:23:18.294Z,21.20
2018-12-13T23:25:51.172Z,20.87
2018-12-13T23:28:28.430Z,21.90
2018-12-13T23:30:59.508Z,21.47
2018-12-13T23:33:35.835Z,20.87
2018-12-13T23:36:12.688Z,20.67
2018-12-13T23:38:44.925Z,21.93
2018-12-13T23:41:17.848Z,21.93
2018-12-13T23:43:50.879Z,20.57
2018-12-13T23:46:27.820Z,21.53
2018-12-13T23:49:01.027Z,21.27
2018-12-13T23:51:31.848Z,21.97
2018-12-13T23:54:08.192Z,19.47
2018-12-13T23:56:39.154Z,20.00
2018-12-13T23:59:11.571Z,20.03
